createdAt,value
2023-01-08T00:01:07.935Z,278.17
2023-01-08T00:03:38.247Z,253.33
2023-01-08T00:06:08.828Z,257.88
2023-01-08T00:08:37.557Z,374.33
2023-01-08T00:11:07.694Z,353.83
2023-01-08T00:13:36.460Z,266.30
2023-01-08T00:16:07.712Z,387.65
2023-01-08T00:18:36.617Z,382.38
2023-01-08T00:21:05.646Z,361.77
2023-01-08T00:23:34.637Z,309.88
2023-01-08T00:26:03.410Z,314.70
2023-01-08T00:28:32.452Z,309.95
2023-01-08T00:31:03.442Z,304.05
2023-01-08T00:33:33.969Z,305.88
2023-01-08T00:36:02.639Z,221.35
2023-01-08T00:38:31.252Z,285.48
2023-01-08T00:40:59.664Z,313.60
2023-01-08T00:43:28.328Z,259.88
2023-01-08T00:45:56.958Z,321.63
2023-01-08T00:48:25.883Z,359.05
2023-01-08T00:50:56.587Z,288.60
2023-01-08T00:53:25.470Z,363.10
2023-01-08T00:56:01.547Z,338.52
2023-01-08T00:58:30.196Z,287.13
2023-01-08T01:00:58.933Z,300.95
2023-01-08T01:03:27.664Z,296.10
2023-01-08T01:06:03.957Z,210.10
2023-01-08T01:08:32.499Z,210.48
2023-01-08T01:11:01.183Z,209.00
2023-01-08T01:13:29.736Z,376.67
2023-01-08T01:16:01.557Z,237.95
2023-01-08T01:18:30.339Z,258.80
2023-01-08T01:20:58.840Z,178.32
2023-01-08T01:23:29.024Z,231.82
2023-01-08T01:25:57.673Z,197.95
2023-01-08T01:28:26.414Z,177.55
2023-01-08T01:30:58.287Z,222.75
2023-01-08T01:33:27.283Z,211.07
2023-01-08T01:36:03.336Z,369.15
2023-01-08T01:38:33.387Z,180.70
2023-01-08T01:41:02.075Z,212.80
2023-01-08T01:43:40.877Z,191.27
2023-01-08T01:46:19.088Z,190.35
2023-01-08T01:48:48.617Z,232.73
2023-01-08T01:51:17.187Z,252.55
2023-01-08T01:53:47.812Z,217.65
2023-01-08T01:56:16.370Z,212.65
2023-01-08T01:58:44.920Z,265.70
2023-01-08T02:01:13.673Z,326.65
2023-01-08T02:03:42.528Z,318.65
2023-01-08T02:06:17.790Z,316.20
2023-01-08T02:08:56.441Z,281.27
2023-01-08T02:11:30.892Z,204.85
2023-01-08T02:14:03.419Z,180.50
2023-01-08T02:16:38.101Z,122.80
2023-01-08T02:21:45.873Z,116.70
2023-01-08T02:24:25.154Z,166.82
2023-01-08T02:26:56.046Z,136.40
2023-01-08T02:29:28.448Z,101.88
2023-01-08T02:31:57.308Z,120.95
2023-01-08T02:34:26.029Z,126.88
2023-01-08T02:36:55.666Z,124.85
2023-01-08T02:39:39.255Z,159.65
2023-01-08T02:42:12.556Z,134.55
2023-01-08T02:44:52.291Z,106.05
2023-01-08T02:47:30.054Z,126.38
2023-01-08T02:50:09.271Z,116.47
2023-01-08T02:52:43.068Z,117.22
2023-01-08T02:55:12.805Z,137.18
2023-01-08T02:57:42.918Z,131.75
2023-01-08T03:00:13.294Z,122.25
2023-01-08T03:02:43.547Z,133.50
2023-01-08T03:05:16.952Z,115.03
2023-01-08T03:07:45.480Z,136.10
2023-01-08T03:10:14.383Z,140.88
2023-01-08T03:12:51.004Z,129.20
2023-01-08T03:15:26.084Z,120.40
2023-01-08T03:17:58.787Z,135.05
2023-01-08T03:20:27.599Z,99.63
2023-01-08T03:22:58.320Z,140.93
2023-01-08T03:25:28.627Z,123.55
2023-01-08T03:28:02.733Z,183.40
2023-01-08T03:30:32.455Z,147.80
2023-01-08T03:33:02.159Z,144.52
2023-01-08T03:35:31.700Z,140.93
2023-01-08T03:38:04.961Z,111.18
2023-01-08T03:40:36.768Z,111.82
2023-01-08T03:43:06.700Z,117.38
2023-01-08T03:45:35.269Z,157.15
2023-01-08T03:48:05.120Z,123.55
2023-01-08T03:50:34.336Z,108.75
2023-01-08T03:53:02.913Z,151.35
2023-01-08T03:55:31.340Z,132.48
2023-01-08T03:57:59.869Z,126.80
2023-01-08T04:00:30.139Z,113.43
2023-01-08T04:02:59.032Z,111.70
2023-01-08T04:05:27.527Z,119.63
2023-01-08T04:07:57.654Z,127.30
2023-01-08T04:10:26.569Z,117.38
2023-01-08T04:12:55.160Z,119.20
2023-01-08T04:15:23.591Z,120.28
2023-01-08T04:17:54.505Z,107.90
2023-01-08T04:20:22.984Z,108.85
2023-01-08T04:22:51.515Z,114.00
2023-01-08T04:25:20.388Z,128.57
2023-01-08T04:27:49.136Z,113.40
2023-01-08T04:30:17.863Z,113.82
2023-01-08T04:32:46.196Z,108.93
2023-01-08T04:35:16.327Z,125.30
2023-01-08T04:37:44.761Z,113.70
2023-01-08T04:40:13.767Z,101.85
2023-01-08T04:42:42.325Z,123.70
2023-01-08T04:45:11.576Z,127.43
2023-01-08T04:47:39.908Z,141.23
2023-01-08T04:50:09.022Z,132.30
2023-01-08T04:52:38.972Z,118.00
2023-01-08T04:55:08.311Z,119.68
2023-01-08T04:57:36.720Z,136.10
2023-01-08T05:00:06.651Z,139.68
2023-01-08T05:02:35.463Z,121.82
2023-01-08T05:05:04.591Z,115.72
2023-01-08T05:07:33.081Z,107.90
2023-01-08T05:10:03.078Z,134.27
2023-01-08T05:12:31.584Z,180.93
2023-01-08T05:15:00.338Z,158.70
2023-01-08T05:17:29.100Z,276.45
2023-01-08T05:19:57.628Z,174.05
2023-01-08T05:22:26.221Z,198.15
2023-01-08T05:24:54.600Z,189.77
2023-01-08T05:27:24.373Z,164.70
2023-01-08T05:29:52.946Z,229.43
2023-01-08T05:32:21.450Z,189.50
2023-01-08T05:34:50.550Z,187.10
2023-01-08T05:37:19.161Z,314.15
2023-01-08T05:39:47.750Z,308.58
2023-01-08T05:42:16.219Z,212.60
2023-01-08T05:44:46.139Z,339.10
2023-01-08T05:47:14.703Z,279.70
2023-01-08T05:49:43.229Z,349.60
2023-01-08T05:52:11.764Z,360.85
2023-01-08T05:54:40.260Z,388.38
2023-01-08T05:57:08.923Z,333.70
2023-01-08T05:59:37.563Z,404.75
2023-01-08T06:02:08.597Z,364.13
2023-01-08T06:04:37.068Z,395.77
2023-01-08T06:07:05.830Z,355.85
2023-01-08T06:09:34.366Z,415.98
2023-01-08T06:12:03.185Z,417.60
2023-01-08T06:14:31.821Z,394.98
2023-01-08T06:17:00.231Z,416.90
2023-01-08T06:19:30.162Z,430.35
2023-01-08T06:21:58.703Z,431.52
2023-01-08T06:24:27.169Z,378.33
2023-01-08T06:26:55.968Z,429.15
2023-01-08T06:29:24.452Z,439.35
2023-01-08T06:31:52.981Z,429.30
2023-01-08T06:34:21.528Z,349.55
2023-01-08T06:36:52.118Z,395.98
2023-01-08T06:39:22.233Z,417.48
2023-01-08T06:41:52.113Z,383.73
2023-01-08T06:44:20.810Z,412.52
2023-01-08T06:46:49.491Z,380.77
2023-01-08T06:49:18.151Z,433.75
2023-01-08T06:51:46.820Z,411.42
2023-01-08T06:54:16.635Z,438.35
2023-01-08T06:56:53.307Z,419.05
2023-01-08T06:59:22.282Z,456.08
2023-01-08T07:01:51.243Z,446.95
2023-01-08T07:04:20.052Z,451.85
2023-01-08T07:06:48.680Z,435.00
2023-01-08T07:09:18.671Z,453.33
2023-01-08T07:11:47.334Z,433.95
2023-01-08T07:14:18.723Z,454.80
2023-01-08T07:17:31.053Z,462.67
2023-01-08T07:20:00.193Z,459.63
2023-01-08T07:30:29.867Z,465.02
2023-01-08T07:42:29.256Z,447.13
2023-01-08T07:44:58.136Z,517.17
2023-01-08T07:47:26.663Z,478.92
2023-01-08T07:49:55.151Z,461.30
2023-01-08T07:52:23.713Z,515.90
2023-01-08T07:54:52.321Z,510.27
2023-01-08T07:57:20.993Z,480.23
2023-01-08T07:59:51.125Z,509.27
2023-01-08T08:02:20.143Z,514.85
2023-01-08T08:04:48.745Z,516.72
2023-01-08T08:07:17.625Z,507.42
2023-01-08T08:09:46.225Z,499.30
2023-01-08T08:12:15.218Z,492.27
2023-01-08T08:14:43.722Z,547.70
2023-01-08T08:17:13.687Z,518.58
2023-01-08T08:19:44.027Z,465.60
2023-01-08T08:22:14.132Z,486.92
2023-01-08T08:24:42.786Z,538.15
2023-01-08T08:27:11.554Z,546.40
2023-01-08T08:29:40.328Z,530.00
2023-01-08T08:32:09.043Z,553.05
2023-01-08T08:34:39.216Z,538.78
2023-01-08T08:41:20.523Z,536.33
2023-01-08T08:43:51.249Z,535.92
2023-01-08T08:46:20.126Z,556.53
2023-01-08T08:48:48.910Z,517.10
2023-01-08T08:51:18.684Z,519.50
2023-01-08T08:53:47.051Z,524.05
2023-01-08T08:56:15.424Z,545.13
2023-01-08T08:58:45.242Z,563.35
2023-01-08T09:01:13.796Z,558.10
2023-01-08T09:03:42.300Z,502.90
2023-01-08T09:06:15.049Z,492.08
2023-01-08T09:08:44.739Z,499.25
2023-01-08T09:11:14.497Z,485.75
2023-01-08T09:13:43.107Z,621.25
2023-01-08T09:16:11.633Z,484.85
2023-01-08T09:18:40.090Z,511.92
2023-01-08T09:21:09.425Z,507.38
2023-01-08T09:23:38.737Z,474.42
2023-01-08T09:26:08.915Z,473.98
2023-01-08T09:28:38.033Z,487.45
2023-01-08T09:31:07.419Z,574.55
2023-01-08T09:33:36.476Z,526.13
2023-01-08T09:36:05.798Z,527.38
2023-01-08T09:38:34.664Z,526.58
2023-01-08T09:41:05.443Z,498.65
2023-01-08T09:43:37.799Z,475.65
2023-01-08T09:46:10.033Z,465.85
2023-01-08T09:48:41.294Z,490.48
2023-01-08T09:51:12.053Z,492.88
2023-01-08T09:53:40.763Z,489.60
2023-01-08T09:56:15.450Z,512.70
2023-01-08T10:01:16.246Z,442.33
2023-01-08T10:03:46.793Z,457.63
2023-01-08T10:06:17.047Z,441.15
2023-01-08T10:11:19.687Z,680.10
2023-01-08T10:13:54.366Z,411.30
2023-01-08T10:18:54.729Z,335.15
2023-01-08T10:21:30.891Z,454.75
2023-01-08T10:23:59.465Z,475.70
2023-01-08T10:27:15.499Z,451.98
2023-01-08T10:32:24.532Z,245.35
2023-01-08T10:34:54.158Z,362.92
2023-01-08T10:37:28.193Z,385.25
2023-01-08T10:40:02.089Z,354.27
2023-01-08T10:42:35.063Z,516.25
2023-01-08T10:45:08.064Z,362.73
2023-01-08T10:47:38.417Z,404.45
2023-01-08T10:50:19.294Z,321.77
2023-01-08T10:52:54.586Z,305.40
2023-01-08T10:55:27.758Z,267.73
2023-01-08T10:58:00.897Z,304.33
2023-01-08T11:00:32.852Z,416.45
2023-01-08T11:03:03.420Z,393.40
2023-01-08T11:05:42.745Z,362.88
2023-01-08T11:08:22.769Z,266.77
2023-01-08T11:10:56.445Z,235.90
2023-01-08T11:13:25.029Z,257.55
2023-01-08T11:16:04.890Z,291.08
2023-01-08T11:18:43.739Z,355.10
2023-01-08T11:21:21.060Z,370.23
2023-01-08T11:24:00.470Z,225.48
2023-01-08T11:26:29.359Z,212.95
2023-01-08T11:29:01.312Z,192.40
2023-01-08T11:31:37.874Z,246.50
2023-01-08T11:34:13.318Z,225.30
2023-01-08T11:36:48.447Z,217.43
2023-01-08T11:39:17.214Z,240.95
2023-01-08T11:42:03.186Z,224.20
2023-01-08T11:44:42.139Z,205.90
2023-01-08T11:47:17.208Z,204.32
2023-01-08T11:50:11.685Z,246.13
2023-01-08T11:52:52.960Z,194.48
2023-01-08T11:55:30.668Z,216.80
2023-01-08T11:58:12.180Z,299.05
2023-01-08T12:00:50.651Z,221.25
2023-01-08T12:03:30.563Z,231.23
2023-01-08T12:06:09.775Z,206.80
2023-01-08T12:08:44.792Z,203.77
2023-01-08T12:11:18.395Z,220.77
2023-01-08T12:14:02.800Z,315.03
2023-01-08T12:16:48.440Z,340.17
2023-01-08T12:19:25.069Z,183.57
2023-01-08T12:22:22.161Z,293.05
2023-01-08T12:25:13.316Z,202.88
2023-01-08T12:27:56.698Z,177.02
2023-01-08T12:30:31.925Z,186.33
2023-01-08T12:33:04.022Z,268.40
2023-01-08T12:35:39.587Z,266.27
2023-01-08T12:38:12.200Z,209.95
2023-01-08T12:40:43.087Z,395.95
2023-01-08T12:43:16.784Z,399.88
2023-01-08T12:45:47.714Z,247.05
2023-01-08T12:48:18.169Z,216.85
2023-01-08T12:50:57.675Z,216.10
2023-01-08T12:53:36.664Z,279.25
2023-01-08T12:56:09.868Z,218.82
2023-01-08T13:10:08.475Z,276.25
2023-01-08T13:12:39.495Z,247.68
2023-01-08T13:15:09.261Z,228.15
2023-01-08T13:17:39.816Z,261.15
2023-01-08T13:20:09.597Z,249.88
2023-01-08T13:22:38.931Z,253.15
2023-01-08T13:25:34.303Z,277.17
2023-01-08T13:28:27.541Z,406.52
2023-01-08T13:31:41.387Z,329.80
2023-01-08T13:34:36.729Z,197.52
2023-01-08T13:37:06.292Z,182.57
2023-01-08T13:39:37.938Z,281.58
2023-01-08T13:42:25.223Z,211.13
2023-01-08T13:44:59.080Z,257.27
2023-01-08T13:47:32.071Z,184.05
2023-01-08T13:50:03.845Z,207.50
2023-01-08T13:52:35.958Z,246.43
2023-01-08T13:57:55.167Z,295.13
2023-01-08T14:00:34.369Z,379.20
2023-01-08T14:03:05.077Z,248.68
2023-01-08T14:05:35.138Z,202.88
2023-01-08T14:08:04.408Z,214.75
2023-01-08T14:10:33.009Z,271.35
2023-01-08T14:13:08.493Z,233.15
2023-01-08T14:15:37.747Z,222.70
2023-01-08T14:18:07.096Z,314.58
2023-01-08T14:20:37.471Z,270.25
2023-01-08T14:23:13.347Z,263.10
2023-01-08T14:25:48.248Z,200.68
2023-01-08T14:28:21.264Z,335.23
2023-01-08T14:30:50.689Z,207.55
2023-01-08T14:33:22.537Z,187.95
2023-01-08T14:35:51.568Z,204.20
2023-01-08T14:38:21.667Z,293.73
2023-01-08T14:40:58.767Z,185.05
2023-01-08T14:43:30.848Z,174.00
2023-01-08T14:46:00.089Z,202.98
2023-01-08T14:48:33.301Z,202.38
2023-01-08T14:51:04.863Z,201.65
2023-01-08T14:53:36.759Z,274.33
2023-01-08T14:56:07.001Z,190.88
2023-01-08T14:58:39.695Z,357.35
2023-01-08T15:01:16.471Z,203.88
2023-01-08T15:03:46.940Z,191.57
2023-01-08T15:06:37.287Z,196.63
2023-01-08T15:09:24.132Z,193.95
2023-01-08T15:12:01.484Z,291.55
2023-01-08T15:14:52.004Z,184.98
2023-01-08T15:17:24.216Z,331.08
2023-01-08T15:20:00.757Z,263.92
2023-01-08T15:22:32.948Z,193.50
2023-01-08T15:25:02.888Z,257.80
2023-01-08T15:27:34.372Z,182.10
2023-01-08T15:30:05.490Z,192.52
2023-01-08T15:32:37.143Z,189.95
2023-01-08T15:35:15.755Z,174.35
2023-01-08T15:37:44.766Z,179.98
2023-01-08T15:40:14.214Z,239.80
2023-01-08T15:43:03.484Z,305.50
2023-01-08T15:45:33.620Z,240.40
2023-01-08T15:48:06.715Z,325.05
2023-01-08T15:50:38.720Z,333.67
2023-01-08T15:53:08.875Z,327.08
2023-01-08T15:55:37.722Z,379.90
2023-01-08T15:58:06.315Z,534.25
2023-01-08T16:00:36.244Z,376.63
2023-01-08T16:03:07.516Z,493.75
2023-01-08T16:05:36.546Z,316.60
2023-01-08T16:08:05.790Z,282.02
2023-01-08T16:10:34.829Z,362.35
2023-01-08T16:13:03.716Z,348.27
2023-01-08T16:15:32.329Z,328.98
2023-01-08T16:18:04.568Z,272.05
2023-01-08T16:20:33.113Z,289.05
2023-01-08T16:23:01.507Z,423.67
2023-01-08T16:25:31.507Z,208.93
2023-01-08T16:28:00.175Z,247.38
2023-01-08T16:30:28.721Z,247.35
2023-01-08T16:32:57.917Z,383.23
2023-01-08T16:35:30.033Z,232.23
2023-01-08T16:38:00.831Z,245.88
2023-01-08T16:40:29.439Z,243.23
2023-01-08T16:43:02.683Z,233.00
2023-01-08T16:45:31.163Z,346.27
2023-01-08T16:47:59.546Z,313.17
2023-01-08T16:50:29.438Z,332.40
2023-01-08T16:52:57.948Z,360.25
2023-01-08T16:55:26.444Z,242.07
2023-01-08T16:57:55.674Z,316.25
2023-01-08T17:00:24.594Z,355.70
2023-01-08T17:02:53.162Z,251.27
2023-01-08T17:05:21.527Z,220.80
2023-01-08T17:07:54.094Z,265.33
2023-01-08T17:10:22.779Z,217.93
2023-01-08T17:12:51.403Z,233.57
2023-01-08T17:15:19.961Z,218.45
2023-01-08T17:17:48.379Z,222.57
2023-01-08T17:20:19.760Z,222.73
2023-01-08T17:22:48.314Z,206.65
2023-01-08T17:25:18.252Z,213.18
2023-01-08T17:27:46.740Z,230.02
2023-01-08T17:30:15.718Z,302.63
2023-01-08T17:32:44.062Z,280.23
2023-01-08T17:35:12.896Z,246.32
2023-01-08T17:37:52.468Z,355.23
2023-01-08T17:40:22.517Z,263.67
2023-01-08T17:42:50.997Z,421.85
2023-01-08T17:45:22.962Z,244.85
2023-01-08T17:47:51.906Z,215.60
2023-01-08T17:54:13.071Z,310.42
2023-01-08T18:00:12.533Z,210.00
2023-01-08T18:02:41.210Z,214.80
2023-01-08T18:05:10.392Z,275.55
2023-01-08T18:07:40.337Z,228.77
2023-01-08T18:10:10.124Z,281.23
2023-01-08T18:12:40.421Z,270.27
2023-01-08T18:15:09.925Z,244.73
2023-01-08T18:17:39.489Z,352.55
2023-01-08T18:20:09.340Z,317.95
2023-01-08T18:22:38.447Z,271.80
2023-01-08T18:25:07.487Z,247.93
2023-01-08T18:27:36.527Z,271.20
2023-01-08T18:30:10.199Z,276.65
2023-01-08T18:32:38.735Z,263.75
2023-01-08T18:35:07.993Z,325.25
2023-01-08T18:37:36.458Z,326.42
2023-01-08T18:40:05.211Z,291.58
2023-01-08T18:42:33.982Z,340.30
2023-01-08T18:45:03.569Z,392.50
2023-01-08T18:47:33.471Z,398.08
2023-01-08T18:50:03.343Z,413.10
2023-01-08T18:52:31.915Z,582.50
2023-01-08T18:55:00.383Z,490.20
2023-01-08T18:57:29.403Z,386.42
2023-01-08T18:59:58.084Z,453.30
2023-01-08T19:02:29.197Z,375.10
2023-01-08T19:04:59.139Z,380.83
2023-01-08T19:07:28.194Z,322.23
2023-01-08T19:10:02.121Z,382.48
2023-01-08T19:12:32.310Z,357.33
2023-01-08T19:15:00.855Z,316.75
2023-01-08T19:17:31.803Z,326.27
2023-01-08T19:20:01.911Z,371.25
2023-01-08T19:22:32.017Z,357.02
2023-01-08T19:25:03.074Z,391.48
2023-01-08T19:27:31.716Z,382.67
2023-01-08T19:30:00.408Z,304.70
2023-01-08T19:32:30.241Z,418.20
2023-01-08T19:35:03.319Z,369.13
2023-01-08T19:37:32.277Z,333.17
2023-01-08T19:40:03.173Z,359.02
2023-01-08T19:42:49.139Z,422.75
2023-01-08T19:45:19.587Z,408.48
2023-01-08T19:47:48.267Z,378.92
2023-01-08T19:53:52.497Z,358.55
2023-01-08T19:56:22.191Z,405.33
2023-01-08T19:58:51.323Z,418.38
2023-01-08T20:01:22.712Z,439.80
2023-01-08T20:03:51.473Z,432.88
2023-01-08T20:06:23.844Z,386.92
2023-01-08T20:09:00.054Z,431.55
2023-01-08T20:11:31.212Z,447.77
2023-01-08T20:14:02.787Z,404.83
2023-01-08T20:16:31.674Z,477.67
2023-01-08T20:19:02.275Z,482.50
2023-01-08T20:21:33.774Z,479.75
2023-01-08T20:24:08.478Z,479.38
2023-01-08T20:29:07.758Z,476.75
2023-01-08T20:31:36.523Z,497.25
2023-01-08T20:34:07.425Z,560.60
2023-01-08T20:36:38.574Z,481.48
2023-01-08T20:39:10.059Z,508.35
2023-01-08T20:41:38.872Z,500.25
2023-01-08T20:44:07.938Z,500.52
2023-01-08T20:46:39.967Z,535.58
2023-01-08T20:49:11.751Z,511.80
2023-01-08T20:51:54.367Z,518.33
2023-01-08T20:54:28.981Z,512.60
2023-01-08T20:56:58.209Z,502.95
2023-01-08T20:59:26.986Z,518.65
2023-01-08T21:01:55.698Z,511.65
2023-01-08T21:04:24.572Z,516.80
2023-01-08T21:06:53.522Z,537.53
2023-01-08T21:09:22.170Z,532.63
2023-01-08T21:11:52.079Z,518.05
2023-01-08T21:14:20.787Z,523.38
2023-01-08T21:16:49.552Z,532.55
2023-01-08T21:19:18.365Z,514.03
2023-01-08T21:21:46.926Z,530.85
2023-01-08T21:24:16.223Z,523.83
2023-01-08T21:26:46.398Z,556.30
2023-01-08T21:29:17.613Z,531.97
2023-01-08T21:31:46.150Z,524.78
2023-01-08T21:34:15.000Z,559.78
2023-01-08T21:36:43.862Z,576.85
2023-01-08T21:39:12.929Z,532.13
2023-01-08T21:41:59.285Z,543.95
2023-01-08T21:44:47.205Z,533.40
2023-01-08T21:47:19.658Z,528.38
2023-01-08T21:49:48.203Z,523.05
2023-01-08T21:52:33.938Z,527.42
2023-01-08T21:55:02.522Z,542.13
2023-01-08T21:57:30.893Z,538.10
2023-01-08T22:00:00.885Z,543.97
2023-01-08T22:02:29.415Z,536.45
2023-01-08T22:04:58.594Z,544.33
2023-01-08T22:07:27.554Z,568.90
2023-01-08T22:10:15.118Z,549.83
2023-01-08T22:12:43.752Z,546.25
2023-01-08T22:15:14.623Z,555.33
2023-01-08T22:17:43.295Z,553.85
2023-01-08T22:20:12.828Z,549.90
2023-01-08T22:22:42.507Z,588.03
2023-01-08T22:25:11.291Z,536.47
2023-01-08T22:27:40.023Z,547.08
2023-01-08T22:30:09.964Z,597.28
2023-01-08T22:32:39.884Z,589.10
2023-01-08T22:35:08.628Z,574.58
2023-01-08T22:37:37.587Z,545.15
2023-01-08T22:40:06.527Z,586.35
2023-01-08T22:42:36.123Z,580.72
2023-01-08T22:45:05.014Z,573.72
2023-01-08T22:47:33.568Z,585.45
2023-01-08T22:50:03.646Z,597.00
2023-01-08T22:52:32.107Z,589.08
2023-01-08T22:55:00.972Z,567.83
2023-01-08T22:57:29.601Z,591.72
2023-01-08T22:59:58.379Z,610.75
2023-01-08T23:02:27.068Z,599.65
2023-01-08T23:04:56.949Z,582.55
2023-01-08T23:07:26.818Z,565.22
2023-01-08T23:09:55.374Z,597.53
2023-01-08T23:12:23.927Z,579.55
2023-01-08T23:14:52.678Z,546.55
2023-01-08T23:17:21.249Z,576.88
2023-01-08T23:19:49.903Z,536.03
2023-01-08T23:22:18.506Z,570.45
2023-01-08T23:24:48.479Z,538.92
2023-01-08T23:27:17.090Z,573.38
2023-01-08T23:29:45.578Z,565.92
2023-01-08T23:32:14.039Z,580.95
2023-01-08T23:34:43.301Z,498.00
2023-01-08T23:37:12.298Z,576.95
2023-01-08T23:39:41.149Z,583.28
2023-01-08T23:42:11.169Z,549.22
2023-01-08T23:44:39.763Z,519.80
2023-01-08T23:47:08.568Z,509.27
2023-01-08T23:49:37.298Z,540.22
2023-01-08T23:52:05.904Z,563.90
2023-01-08T23:54:35.875Z,545.35
2023-01-08T23:57:06.087Z,488.10
2023-01-08T23:59:36.090Z,576.67
